sensor_id;sensor_type;location;lat;lon;timestamp;P1;durP1;ratioP1;P2;durP2;ratioP2
12302;SDS011;6214;48.012;7.862;2022-08-24T00:01:08;4.30;;;2.10;;
12302;SDS011;6214;48.012;7.862;2022-08-24T00:03:38;5.17;;;2.13;;
12302;SDS011;6214;48.012;7.862;2022-08-24T00:06:07;5.10;;;2.28;;
12302;SDS011;6214;48.012;7.862;2022-08-24T00:08:37;5.40;;;2.20;;
12302;SDS011;6214;48.012;7.862;2022-08-24T00:11:05;5.30;;;2.30;;
12302;SDS011;6214;48.012;7.862;2022-08-24T00:13:33;5.00;;;2.10;;
12302;SDS011;6214;48.012;7.862;2022-08-24T00:16:05;4.55;;;2.20;;
12302;SDS011;6214;48.012;7.862;2022-08-24T00:18:33;5.00;;;2.10;;
12302;SDS011;6214;48.012;7.862;2022-08-24T00:21:00;6.40;;;2.50;;
12302;SDS011;6214;48.012;7.862;2022-08-24T00:23:28;5.10;;;2.40;;
12302;SDS011;6214;48.012;7.862;2022-08-24T00:25:55;5.00;;;2.20;;
12302;SDS011;6214;48.012;7.862;2022-08-24T00:28:23;5.00;;;2.50;;
12302;SDS011;6214;48.012;7.862;2022-08-24T00:30:50;5.05;;;2.30;;
12302;SDS011;6214;48.012;7.862;2022-08-24T00:33:17;4.93;;;2.20;;
12302;SDS011;6214;48.012;7.862;2022-08-24T00:35:44;5.30;;;2.30;;
12302;SDS011;6214;48.012;7.862;2022-08-24T00:38:11;4.45;;;2.17;;
12302;SDS011;6214;48.012;7.862;2022-08-24T00:40:39;6.53;;;2.42;;
12302;SDS011;6214;48.012;7.862;2022-08-24T00:43:09;5.05;;;2.50;;
12302;SDS011;6214;48.012;7.862;2022-08-24T00:45:40;5.20;;;2.65;;
12302;SDS011;6214;48.012;7.862;2022-08-24T00:48:14;4.80;;;2.30;;
12302;SDS011;6214;48.012;7.862;2022-08-24T00:50:46;4.40;;;2.10;;
12302;SDS011;6214;48.012;7.862;2022-08-24T00:53:23;4.63;;;2.30;;
12302;SDS011;6214;48.012;7.862;2022-08-24T00:55:51;6.30;;;2.50;;
12302;SDS011;6214;48.012;7.862;2022-08-24T00:58:33;5.30;;;2.50;;
12302;SDS011;6214;48.012;7.862;2022-08-24T01:01:04;5.00;;;2.60;;
12302;SDS011;6214;48.012;7.862;2022-08-24T01:03:33;5.00;;;2.40;;
12302;SDS011;6214;48.012;7.862;2022-08-24T01:06:03;5.60;;;2.50;;
12302;SDS011;6214;48.012;7.862;2022-08-24T01:08:30;6.80;;;2.80;;
12302;SDS011;6214;48.012;7.862;2022-08-24T01:10:58;5.55;;;2.60;;
12302;SDS011;6214;48.012;7.862;2022-08-24T01:13:28;5.10;;;2.50;;
12302;SDS011;6214;48.012;7.862;2022-08-24T01:15:58;7.00;;;2.70;;
12302;SDS011;6214;48.012;7.862;2022-08-24T01:18:28;5.45;;;2.60;;
12302;SDS011;6214;48.012;7.862;2022-08-24T01:21:20;4.93;;;2.30;;
12302;SDS011;6214;48.012;7.862;2022-08-24T01:23:51;4.90;;;2.40;;
12302;SDS011;6214;48.012;7.862;2022-08-24T01:26:33;5.28;;;2.40;;
12302;SDS011;6214;48.012;7.862;2022-08-24T01:29:09;5.70;;;2.30;;
12302;SDS011;6214;48.012;7.862;2022-08-24T01:31:44;5.30;;;2.50;;
12302;SDS011;6214;48.012;7.862;2022-08-24T01:34:12;5.60;;;2.25;;
12302;SDS011;6214;48.012;7.862;2022-08-24T01:36:40;4.90;;;2.53;;
12302;SDS011;6214;48.012;7.862;2022-08-24T01:39:15;5.50;;;2.30;;
12302;SDS011;6214;48.012;7.862;2022-08-24T01:41:42;5.07;;;2.43;;
12302;SDS011;6214;48.012;7.862;2022-08-24T01:44:09;5.85;;;2.60;;
12302;SDS011;6214;48.012;7.862;2022-08-24T01:46:51;5.70;;;2.40;;
12302;SDS011;6214;48.012;7.862;2022-08-24T01:49:20;5.70;;;2.40;;
12302;SDS011;6214;48.012;7.862;2022-08-24T01:51:50;4.77;;;2.20;;
12302;SDS011;6214;48.012;7.862;2022-08-24T01:54:17;6.13;;;2.70;;
12302;SDS011;6214;48.012;7.862;2022-08-24T01:56:44;5.25;;;2.60;;
12302;SDS011;6214;48.012;7.862;2022-08-24T01:59:13;5.00;;;2.50;;
12302;SDS011;6214;48.012;7.862;2022-08-24T02:01:41;5.43;;;2.40;;
12302;SDS011;6214;48.012;7.862;2022-08-24T02:04:14;4.85;;;2.40;;
12302;SDS011;6214;48.012;7.862;2022-08-24T02:06:44;6.22;;;2.40;;
12302;SDS011;6214;48.012;7.862;2022-08-24T02:09:11;4.75;;;2.33;;
12302;SDS011;6214;48.012;7.862;2022-08-24T02:11:39;5.07;;;2.40;;
12302;SDS011;6214;48.012;7.862;2022-08-24T02:14:06;6.13;;;2.42;;
12302;SDS011;6214;48.012;7.862;2022-08-24T02:16:33;5.40;;;2.47;;
12302;SDS011;6214;48.012;7.862;2022-08-24T02:19:00;4.72;;;2.38;;
12302;SDS011;6214;48.012;7.862;2022-08-24T02:21:27;5.70;;;2.80;;
12302;SDS011;6214;48.012;7.862;2022-08-24T02:23:54;5.70;;;2.55;;
12302;SDS011;6214;48.012;7.862;2022-08-24T02:26:21;4.90;;;2.40;;
12302;SDS011;6214;48.012;7.862;2022-08-24T02:28:56;5.22;;;2.35;;
12302;SDS011;6214;48.012;7.862;2022-08-24T02:31:24;5.30;;;2.55;;
12302;SDS011;6214;48.012;7.862;2022-08-24T02:33:51;5.60;;;2.40;;
12302;SDS011;6214;48.012;7.862;2022-08-24T02:36:18;4.60;;;2.30;;
12302;SDS011;6214;48.012;7.862;2022-08-24T02:38:52;4.77;;;2.20;;
12302;SDS011;6214;48.012;7.862;2022-08-24T02:41:20;4.35;;;2.20;;
12302;SDS011;6214;48.012;7.862;2022-08-24T02:43:48;5.03;;;2.40;;
12302;SDS011;6214;48.012;7.862;2022-08-24T02:46:16;5.40;;;2.30;;
12302;SDS011;6214;48.012;7.862;2022-08-24T02:48:48;5.03;;;2.53;;
12302;SDS011;6214;48.012;7.862;2022-08-24T02:51:35;6.85;;;2.70;;
12302;SDS011;6214;48.012;7.862;2022-08-24T02:54:09;5.78;;;2.58;;
12302;SDS011;6214;48.012;7.862;2022-08-24T02:56:36;5.00;;;2.60;;
12302;SDS011;6214;48.012;7.862;2022-08-24T02:59:03;5.20;;;2.65;;
12302;SDS011;6214;48.012;7.862;2022-08-24T03:01:30;5.20;;;2.30;;
12302;SDS011;6214;48.012;7.862;2022-08-24T03:03:58;5.22;;;2.70;;
12302;SDS011;6214;48.012;7.862;2022-08-24T03:06:24;4.85;;;2.45;;
12302;SDS011;6214;48.012;7.862;2022-08-24T03:08:51;5.00;;;2.60;;
12302;SDS011;6214;48.012;7.862;2022-08-24T03:11:22;5.25;;;2.80;;
12302;SDS011;6214;48.012;7.862;2022-08-24T03:13:53;5.20;;;2.87;;
12302;SDS011;6214;48.012;7.862;2022-08-24T03:16:21;5.50;;;2.55;;
12302;SDS011;6214;48.012;7.862;2022-08-24T03:18:48;5.05;;;2.75;;
12302;SDS011;6214;48.012;7.862;2022-08-24T03:21:15;4.50;;;2.40;;
12302;SDS011;6214;48.012;7.862;2022-08-24T03:23:42;5.30;;;2.75;;
12302;SDS011;6214;48.012;7.862;2022-08-24T03:26:10;5.73;;;2.83;;
12302;SDS011;6214;48.012;7.862;2022-08-24T03:28:37;4.70;;;2.70;;
12302;SDS011;6214;48.012;7.862;2022-08-24T03:31:04;6.00;;;2.65;;
12302;SDS011;6214;48.012;7.862;2022-08-24T03:33:31;6.47;;;2.50;;
12302;SDS011;6214;48.012;7.862;2022-08-24T03:35:59;5.23;;;2.50;;
12302;SDS011;6214;48.012;7.862;2022-08-24T03:38:26;4.50;;;2.50;;
12302;SDS011;6214;48.012;7.862;2022-08-24T03:40:53;5.22;;;2.70;;
12302;SDS011;6214;48.012;7.862;2022-08-24T03:43:20;4.40;;;2.50;;
12302;SDS011;6214;48.012;7.862;2022-08-24T03:46:06;5.13;;;2.30;;
12302;SDS011;6214;48.012;7.862;2022-08-24T03:48:34;5.95;;;2.78;;
12302;SDS011;6214;48.012;7.862;2022-08-24T03:51:02;4.72;;;2.50;;
12302;SDS011;6214;48.012;7.862;2022-08-24T03:53:29;5.22;;;2.50;;
12302;SDS011;6214;48.012;7.862;2022-08-24T03:55:56;4.50;;;2.47;;
12302;SDS011;6214;48.012;7.862;2022-08-24T03:58:23;5.00;;;2.80;;
12302;SDS011;6214;48.012;7.862;2022-08-24T04:00:53;5.28;;;2.40;;
12302;SDS011;6214;48.012;7.862;2022-08-24T04:03:21;5.13;;;2.72;;
12302;SDS011;6214;48.012;7.862;2022-08-24T04:05:50;4.78;;;2.50;;
12302;SDS011;6214;48.012;7.862;2022-08-24T04:08:18;4.60;;;2.40;;
12302;SDS011;6214;48.012;7.862;2022-08-24T04:10:46;4.70;;;2.58;;
12302;SDS011;6214;48.012;7.862;2022-08-24T04:13:13;4.78;;;2.60;;
12302;SDS011;6214;48.012;7.862;2022-08-24T04:15:42;4.90;;;2.60;;
12302;SDS011;6214;48.012;7.862;2022-08-24T04:18:09;4.68;;;2.38;;
12302;SDS011;6214;48.012;7.862;2022-08-24T04:20:38;5.75;;;2.83;;
12302;SDS011;6214;48.012;7.862;2022-08-24T04:23:09;4.70;;;2.60;;
12302;SDS011;6214;48.012;7.862;2022-08-24T04:25:45;5.25;;;2.50;;
12302;SDS011;6214;48.012;7.862;2022-08-24T04:28:14;5.10;;;2.63;;
12302;SDS011;6214;48.012;7.862;2022-08-24T04:30:44;5.72;;;2.60;;
12302;SDS011;6214;48.012;7.862;2022-08-24T04:33:16;5.13;;;2.80;;
12302;SDS011;6214;48.012;7.862;2022-08-24T04:35:45;5.93;;;2.40;;
12302;SDS011;6214;48.012;7.862;2022-08-24T04:38:16;4.90;;;2.40;;
12302;SDS011;6214;48.012;7.862;2022-08-24T04:40:45;6.00;;;2.90;;
12302;SDS011;6214;48.012;7.862;2022-08-24T04:43:12;5.13;;;2.30;;
12302;SDS011;6214;48.012;7.862;2022-08-24T04:45:45;4.70;;;2.40;;
12302;SDS011;6214;48.012;7.862;2022-08-24T04:48:13;5.43;;;2.60;;
12302;SDS011;6214;48.012;7.862;2022-08-24T04:50:42;5.60;;;2.75;;
12302;SDS011;6214;48.012;7.862;2022-08-24T04:53:10;5.07;;;2.90;;
12302;SDS011;6214;48.012;7.862;2022-08-24T04:55:44;5.27;;;2.80;;
12302;SDS011;6214;48.012;7.862;2022-08-24T04:58:14;5.57;;;2.70;;
12302;SDS011;6214;48.012;7.862;2022-08-24T05:00:43;5.35;;;2.50;;
12302;SDS011;6214;48.012;7.862;2022-08-24T05:03:11;5.07;;;2.75;;
12302;SDS011;6214;48.012;7.862;2022-08-24T05:05:42;5.25;;;2.85;;
12302;SDS011;6214;48.012;7.862;2022-08-24T05:08:11;5.70;;;2.65;;
12302;SDS011;6214;48.012;7.862;2022-08-24T05:10:41;4.70;;;2.70;;
12302;SDS011;6214;48.012;7.862;2022-08-24T05:13:09;5.78;;;3.00;;
12302;SDS011;6214;48.012;7.862;2022-08-24T05:15:44;5.30;;;2.70;;
12302;SDS011;6214;48.012;7.862;2022-08-24T05:18:13;5.30;;;2.50;;
12302;SDS011;6214;48.012;7.862;2022-08-24T05:20:42;4.65;;;2.50;;
12302;SDS011;6214;48.012;7.862;2022-08-24T05:23:11;5.93;;;2.90;;
12302;SDS011;6214;48.012;7.862;2022-08-24T05:25:39;6.07;;;2.70;;
12302;SDS011;6214;48.012;7.862;2022-08-24T05:28:07;5.70;;;2.80;;
12302;SDS011;6214;48.012;7.862;2022-08-24T05:30:34;5.10;;;2.80;;
12302;SDS011;6214;48.012;7.862;2022-08-24T05:33:07;5.45;;;2.78;;
12302;SDS011;6214;48.012;7.862;2022-08-24T05:35:38;5.20;;;3.07;;
12302;SDS011;6214;48.012;7.862;2022-08-24T05:38:09;5.00;;;2.90;;
12302;SDS011;6214;48.012;7.862;2022-08-24T05:40:36;6.40;;;3.03;;
12302;SDS011;6214;48.012;7.862;2022-08-24T05:43:03;4.90;;;2.70;;
12302;SDS011;6214;48.012;7.862;2022-08-24T05:45:30;5.10;;;2.92;;
12302;SDS011;6214;48.012;7.862;2022-08-24T05:47:57;4.70;;;2.70;;
12302;SDS011;6214;48.012;7.862;2022-08-24T05:50:24;6.30;;;2.75;;
12302;SDS011;6214;48.012;7.862;2022-08-24T05:52:51;7.15;;;2.95;;
12302;SDS011;6214;48.012;7.862;2022-08-24T05:55:18;4.60;;;2.70;;
12302;SDS011;6214;48.012;7.862;2022-08-24T05:57:45;6.30;;;3.00;;
12302;SDS011;6214;48.012;7.862;2022-08-24T06:00:12;5.33;;;2.70;;
12302;SDS011;6214;48.012;7.862;2022-08-24T06:02:39;5.68;;;2.70;;
12302;SDS011;6214;48.012;7.862;2022-08-24T06:05:07;6.22;;;3.03;;
12302;SDS011;6214;48.012;7.862;2022-08-24T06:07:35;4.68;;;2.85;;
12302;SDS011;6214;48.012;7.862;2022-08-24T06:10:02;5.18;;;2.80;;
12302;SDS011;6214;48.012;7.862;2022-08-24T06:12:49;6.10;;;2.80;;
12302;SDS011;6214;48.012;7.862;2022-08-24T06:15:16;6.03;;;2.70;;
12302;SDS011;6214;48.012;7.862;2022-08-24T06:17:43;5.85;;;2.80;;
12302;SDS011;6214;48.012;7.862;2022-08-24T06:20:10;5.32;;;2.75;;
12302;SDS011;6214;48.012;7.862;2022-08-24T06:22:37;5.55;;;2.50;;
12302;SDS011;6214;48.012;7.862;2022-08-24T06:25:04;5.25;;;2.40;;
12302;SDS011;6214;48.012;7.862;2022-08-24T06:27:58;6.50;;;2.67;;
12302;SDS011;6214;48.012;7.862;2022-08-24T06:30:25;6.30;;;2.50;;
12302;SDS011;6214;48.012;7.862;2022-08-24T06:32:59;5.07;;;2.60;;
12302;SDS011;6214;48.012;7.862;2022-08-24T06:35:28;5.40;;;2.50;;
12302;SDS011;6214;48.012;7.862;2022-08-24T06:37:55;6.50;;;2.47;;
12302;SDS011;6214;48.012;7.862;2022-08-24T06:40:22;5.25;;;2.80;;
12302;SDS011;6214;48.012;7.862;2022-08-24T06:42:51;5.20;;;2.80;;
12302;SDS011;6214;48.012;7.862;2022-08-24T06:45:18;6.88;;;3.05;;
12302;SDS011;6214;48.012;7.862;2022-08-24T06:47:46;5.15;;;2.70;;
12302;SDS011;6214;48.012;7.862;2022-08-24T06:50:13;5.20;;;3.08;;
12302;SDS011;6214;48.012;7.862;2022-08-24T06:52:40;5.30;;;2.60;;
12302;SDS011;6214;48.012;7.862;2022-08-24T06:55:09;5.15;;;2.80;;
12302;SDS011;6214;48.012;7.862;2022-08-24T06:57:36;4.95;;;2.40;;
12302;SDS011;6214;48.012;7.862;2022-08-24T07:00:03;5.65;;;2.67;;
12302;SDS011;6214;48.012;7.862;2022-08-24T07:02:31;5.25;;;2.40;;
12302;SDS011;6214;48.012;7.862;2022-08-24T07:04:59;5.80;;;2.70;;
12302;SDS011;6214;48.012;7.862;2022-08-24T07:07:26;5.88;;;2.75;;
12302;SDS011;6214;48.012;7.862;2022-08-24T07:09:53;5.35;;;2.60;;
12302;SDS011;6214;48.012;7.862;2022-08-24T07:12:20;6.30;;;2.70;;
12302;SDS011;6214;48.012;7.862;2022-08-24T07:14:48;5.67;;;2.20;;
12302;SDS011;6214;48.012;7.862;2022-08-24T07:17:15;5.68;;;2.60;;
12302;SDS011;6214;48.012;7.862;2022-08-24T07:19:43;4.47;;;2.13;;
12302;SDS011;6214;48.012;7.862;2022-08-24T07:22:11;5.70;;;2.38;;
12302;SDS011;6214;48.012;7.862;2022-08-24T07:24:40;5.53;;;2.50;;
12302;SDS011;6214;48.012;7.862;2022-08-24T07:27:06;5.00;;;2.40;;
12302;SDS011;6214;48.012;7.862;2022-08-24T07:29:33;6.03;;;2.40;;
12302;SDS011;6214;48.012;7.862;2022-08-24T07:32:20;5.40;;;2.55;;
12302;SDS011;6214;48.012;7.862;2022-08-24T07:34:47;4.90;;;2.47;;
12302;SDS011;6214;48.012;7.862;2022-08-24T07:37:14;4.57;;;2.30;;
12302;SDS011;6214;48.012;7.862;2022-08-24T07:39:42;5.83;;;2.10;;
12302;SDS011;6214;48.012;7.862;2022-08-24T07:42:09;5.40;;;2.47;;
12302;SDS011;6214;48.012;7.862;2022-08-24T07:44:41;4.80;;;2.47;;
12302;SDS011;6214;48.012;7.862;2022-08-24T07:47:08;4.55;;;2.25;;
12302;SDS011;6214;48.012;7.862;2022-08-24T07:49:56;4.70;;;2.40;;
12302;SDS011;6214;48.012;7.862;2022-08-24T07:52:23;5.53;;;2.28;;
12302;SDS011;6214;48.012;7.862;2022-08-24T07:54:50;5.60;;;2.40;;
12302;SDS011;6214;48.012;7.862;2022-08-24T07:57:17;4.70;;;2.00;;
12302;SDS011;6214;48.012;7.862;2022-08-24T07:59:44;5.60;;;2.20;;
12302;SDS011;6214;48.012;7.862;2022-08-24T08:02:12;4.80;;;2.10;;
12302;SDS011;6214;48.012;7.862;2022-08-24T08:04:40;4.93;;;2.03;;
12302;SDS011;6214;48.012;7.862;2022-08-24T08:07:08;5.38;;;2.30;;
12302;SDS011;6214;48.012;7.862;2022-08-24T08:09:36;5.20;;;2.20;;
12302;SDS011;6214;48.012;7.862;2022-08-24T08:12:03;4.20;;;2.10;;
12302;SDS011;6214;48.012;7.862;2022-08-24T08:14:32;5.47;;;2.50;;
12302;SDS011;6214;48.012;7.862;2022-08-24T08:16:59;4.90;;;2.50;;
12302;SDS011;6214;48.012;7.862;2022-08-24T08:19:26;6.40;;;2.38;;
12302;SDS011;6214;48.012;7.862;2022-08-24T08:21:53;4.60;;;2.30;;
12302;SDS011;6214;48.012;7.862;2022-08-24T08:24:39;4.70;;;2.30;;
12302;SDS011;6214;48.012;7.862;2022-08-24T08:27:10;5.07;;;2.60;;
12302;SDS011;6214;48.012;7.862;2022-08-24T08:29:38;6.40;;;2.30;;
12302;SDS011;6214;48.012;7.862;2022-08-24T08:32:09;4.93;;;2.08;;
12302;SDS011;6214;48.012;7.862;2022-08-24T08:34:42;5.22;;;2.40;;
12302;SDS011;6214;48.012;7.862;2022-08-24T08:37:11;4.90;;;2.47;;
12302;SDS011;6214;48.012;7.862;2022-08-24T08:39:39;4.15;;;2.08;;
12302;SDS011;6214;48.012;7.862;2022-08-24T08:53:37;5.00;;;2.20;;
12302;SDS011;6214;48.012;7.862;2022-08-24T08:59:11;5.55;;;2.50;;
12302;SDS011;6214;48.012;7.862;2022-08-24T09:04:46;6.10;;;2.20;;
12302;SDS011;6214;48.012;7.862;2022-08-24T09:13:32;6.63;;;2.40;;
12302;SDS011;6214;48.012;7.862;2022-08-24T09:22:13;5.22;;;2.33;;
12302;SDS011;6214;48.012;7.862;2022-08-24T09:24:57;6.00;;;2.50;;
12302;SDS011;6214;48.012;7.862;2022-08-24T09:33:40;5.90;;;2.22;;
12302;SDS011;6214;48.012;7.862;2022-08-24T09:36:17;5.40;;;2.50;;
12302;SDS011;6214;48.012;7.862;2022-08-24T09:53:24;4.95;;;2.33;;
12302;SDS011;6214;48.012;7.862;2022-08-24T10:01:42;4.95;;;2.40;;
12302;SDS011;6214;48.012;7.862;2022-08-24T10:04:27;4.93;;;2.67;;
12302;SDS011;6214;48.012;7.862;2022-08-24T10:07:17;5.97;;;2.40;;
12302;SDS011;6214;48.012;7.862;2022-08-24T10:10:08;6.60;;;2.67;;
12302;SDS011;6214;48.012;7.862;2022-08-24T10:15:27;5.75;;;2.45;;
12302;SDS011;6214;48.012;7.862;2022-08-24T10:21:29;5.20;;;2.70;;
12302;SDS011;6214;48.012;7.862;2022-08-24T10:27:35;6.45;;;2.60;;
12302;SDS011;6214;48.012;7.862;2022-08-24T10:30:13;5.35;;;2.40;;
12302;SDS011;6214;48.012;7.862;2022-08-24T10:32:55;4.60;;;2.00;;
12302;SDS011;6214;48.012;7.862;2022-08-24T10:38:36;4.50;;;1.90;;
12302;SDS011;6214;48.012;7.862;2022-08-24T10:44:45;3.80;;;1.50;;
12302;SDS011;6214;48.012;7.862;2022-08-24T10:47:22;5.60;;;1.70;;
12302;SDS011;6214;48.012;7.862;2022-08-24T10:52:45;3.80;;;1.30;;
12302;SDS011;6214;48.012;7.862;2022-08-24T10:55:33;4.00;;;1.70;;
12302;SDS011;6214;48.012;7.862;2022-08-24T11:00:54;3.85;;;1.40;;
12302;SDS011;6214;48.012;7.862;2022-08-24T11:03:21;5.40;;;1.50;;
12302;SDS011;6214;48.012;7.862;2022-08-24T11:05:54;3.97;;;1.50;;
12302;SDS011;6214;48.012;7.862;2022-08-24T11:11:07;4.10;;;1.60;;
12302;SDS011;6214;48.012;7.862;2022-08-24T11:13:37;4.20;;;1.40;;
12302;SDS011;6214;48.012;7.862;2022-08-24T11:16:26;4.40;;;1.43;;
12302;SDS011;6214;48.012;7.862;2022-08-24T11:18:57;4.13;;;1.60;;
12302;SDS011;6214;48.012;7.862;2022-08-24T11:21:38;3.90;;;1.40;;
12302;SDS011;6214;48.012;7.862;2022-08-24T11:26:54;4.20;;;1.50;;
12302;SDS011;6214;48.012;7.862;2022-08-24T11:29:28;4.70;;;1.40;;
12302;SDS011;6214;48.012;7.862;2022-08-24T11:34:52;4.10;;;1.40;;
12302;SDS011;6214;48.012;7.862;2022-08-24T11:37:22;5.90;;;1.60;;
12302;SDS011;6214;48.012;7.862;2022-08-24T11:39:57;4.20;;;1.60;;
12302;SDS011;6214;48.012;7.862;2022-08-24T11:42:46;4.30;;;1.50;;
12302;SDS011;6214;48.012;7.862;2022-08-24T11:45:58;4.63;;;1.48;;
12302;SDS011;6214;48.012;7.862;2022-08-24T11:51:13;4.50;;;1.40;;
12302;SDS011;6214;48.012;7.862;2022-08-24T11:59:36;4.00;;;1.50;;
12302;SDS011;6214;48.012;7.862;2022-08-24T12:02:14;5.10;;;1.60;;
12302;SDS011;6214;48.012;7.862;2022-08-24T12:05:03;4.53;;;1.70;;
12302;SDS011;6214;48.012;7.862;2022-08-24T12:11:38;4.20;;;1.70;;
12302;SDS011;6214;48.012;7.862;2022-08-24T12:16:29;6.60;;;1.50;;
12302;SDS011;6214;48.012;7.862;2022-08-24T12:19:10;4.68;;;1.55;;
12302;SDS011;6214;48.012;7.862;2022-08-24T12:21:40;3.90;;;1.30;;
12302;SDS011;6214;48.012;7.862;2022-08-24T12:24:12;3.80;;;1.20;;
12302;SDS011;6214;48.012;7.862;2022-08-24T12:26:46;4.13;;;1.30;;
12302;SDS011;6214;48.012;7.862;2022-08-24T12:29:20;3.70;;;1.40;;
12302;SDS011;6214;48.012;7.862;2022-08-24T12:32:08;4.10;;;1.50;;
12302;SDS011;6214;48.012;7.862;2022-08-24T12:37:37;4.20;;;1.70;;
12302;SDS011;6214;48.012;7.862;2022-08-24T12:43:09;4.00;;;1.50;;
12302;SDS011;6214;48.012;7.862;2022-08-24T12:45:39;4.40;;;1.42;;
12302;SDS011;6214;48.012;7.862;2022-08-24T13:02:02;4.50;;;1.30;;
12302;SDS011;6214;48.012;7.862;2022-08-24T13:04:32;4.30;;;1.30;;
12302;SDS011;6214;48.012;7.862;2022-08-24T13:17:49;4.50;;;1.48;;
12302;SDS011;6214;48.012;7.862;2022-08-24T13:41:58;4.00;;;1.30;;
12302;SDS011;6214;48.012;7.862;2022-08-24T13:44:56;4.20;;;1.50;;
12302;SDS011;6214;48.012;7.862;2022-08-24T13:53:49;4.20;;;1.40;;
12302;SDS011;6214;48.012;7.862;2022-08-24T14:02:37;4.80;;;1.50;;
12302;SDS011;6214;48.012;7.862;2022-08-24T14:05:30;4.10;;;1.33;;
12302;SDS011;6214;48.012;7.862;2022-08-24T14:17:08;4.50;;;1.30;;
12302;SDS011;6214;48.012;7.862;2022-08-24T14:20:06;4.60;;;1.50;;
12302;SDS011;6214;48.012;7.862;2022-08-24T14:25:30;3.70;;;1.23;;
12302;SDS011;6214;48.012;7.862;2022-08-24T14:38:09;3.90;;;1.30;;
12302;SDS011;6214;48.012;7.862;2022-08-24T14:46:06;4.40;;;1.20;;
12302;SDS011;6214;48.012;7.862;2022-08-24T14:49:07;4.35;;;1.10;;
12302;SDS011;6214;48.012;7.862;2022-08-24T14:52:00;3.60;;;1.10;;
12302;SDS011;6214;48.012;7.862;2022-08-24T14:54:51;3.80;;;1.10;;
12302;SDS011;6214;48.012;7.862;2022-08-24T14:57:34;4.05;;;1.20;;
12302;SDS011;6214;48.012;7.862;2022-08-24T15:00:30;4.30;;;1.00;;
12302;SDS011;6214;48.012;7.862;2022-08-24T15:06:05;4.10;;;1.30;;
12302;SDS011;6214;48.012;7.862;2022-08-24T15:09:04;3.85;;;1.10;;
12302;SDS011;6214;48.012;7.862;2022-08-24T15:11:34;4.95;;;1.10;;
12302;SDS011;6214;48.012;7.862;2022-08-24T15:14:06;4.00;;;1.10;;
12302;SDS011;6214;48.012;7.862;2022-08-24T15:17:07;4.10;;;1.17;;
12302;SDS011;6214;48.012;7.862;2022-08-24T15:27:58;4.70;;;1.13;;
12302;SDS011;6214;48.012;7.862;2022-08-24T15:30:34;3.70;;;0.98;;
12302;SDS011;6214;48.012;7.862;2022-08-24T15:33:13;5.00;;;1.30;;
12302;SDS011;6214;48.012;7.862;2022-08-24T15:36:03;5.00;;;1.20;;
12302;SDS011;6214;48.012;7.862;2022-08-24T15:38:33;4.50;;;1.10;;
12302;SDS011;6214;48.012;7.862;2022-08-24T15:43:45;4.60;;;1.20;;
12302;SDS011;6214;48.012;7.862;2022-08-24T15:46:26;4.90;;;1.20;;
12302;SDS011;6214;48.012;7.862;2022-08-24T15:49:17;4.20;;;1.10;;
12302;SDS011;6214;48.012;7.862;2022-08-24T15:56:58;5.15;;;1.17;;
12302;SDS011;6214;48.012;7.862;2022-08-24T16:02:16;4.55;;;1.10;;
12302;SDS011;6214;48.012;7.862;2022-08-24T16:08:26;4.60;;;0.90;;
12302;SDS011;6214;48.012;7.862;2022-08-24T16:13:26;3.72;;;1.05;;
12302;SDS011;6214;48.012;7.862;2022-08-24T16:15:58;4.32;;;1.10;;
12302;SDS011;6214;48.012;7.862;2022-08-24T16:18:51;4.20;;;1.20;;
12302;SDS011;6214;48.012;7.862;2022-08-24T16:21:28;4.65;;;1.00;;
12302;SDS011;6214;48.012;7.862;2022-08-24T16:26:52;3.45;;;1.02;;
12302;SDS011;6214;48.012;7.862;2022-08-24T16:35:18;3.60;;;1.02;;
12302;SDS011;6214;48.012;7.862;2022-08-24T16:37:46;4.15;;;1.10;;
12302;SDS011;6214;48.012;7.862;2022-08-24T16:40:13;4.10;;;1.00;;
12302;SDS011;6214;48.012;7.862;2022-08-24T16:42:42;3.75;;;1.00;;
12302;SDS011;6214;48.012;7.862;2022-08-24T16:45:10;4.20;;;0.90;;
12302;SDS011;6214;48.012;7.862;2022-08-24T16:47:40;4.00;;;0.90;;
12302;SDS011;6214;48.012;7.862;2022-08-24T16:50:07;3.78;;;1.10;;
12302;SDS011;6214;48.012;7.862;2022-08-24T16:52:34;3.90;;;1.17;;
12302;SDS011;6214;48.012;7.862;2022-08-24T16:55:01;3.93;;;1.03;;
12302;SDS011;6214;48.012;7.862;2022-08-24T16:57:30;4.20;;;1.10;;
12302;SDS011;6214;48.012;7.862;2022-08-24T17:00:05;3.70;;;1.17;;
12302;SDS011;6214;48.012;7.862;2022-08-24T17:02:34;3.60;;;0.93;;
12302;SDS011;6214;48.012;7.862;2022-08-24T17:05:03;3.80;;;1.02;;
12302;SDS011;6214;48.012;7.862;2022-08-24T17:07:30;4.30;;;1.27;;
12302;SDS011;6214;48.012;7.862;2022-08-24T17:09:57;6.40;;;1.20;;
12302;SDS011;6214;48.012;7.862;2022-08-24T17:12:28;4.30;;;1.30;;
12302;SDS011;6214;48.012;7.862;2022-08-24T17:14:56;4.00;;;1.20;;
12302;SDS011;6214;48.012;7.862;2022-08-24T17:17:24;3.95;;;1.13;;
12302;SDS011;6214;48.012;7.862;2022-08-24T17:19:51;4.27;;;1.10;;
12302;SDS011;6214;48.012;7.862;2022-08-24T17:22:20;4.80;;;1.00;;
12302;SDS011;6214;48.012;7.862;2022-08-24T17:24:48;4.30;;;1.20;;
12302;SDS011;6214;48.012;7.862;2022-08-24T17:27:17;4.00;;;1.10;;
12302;SDS011;6214;48.012;7.862;2022-08-24T17:29:46;4.90;;;1.20;;
12302;SDS011;6214;48.012;7.862;2022-08-24T17:32:13;4.10;;;1.10;;
12302;SDS011;6214;48.012;7.862;2022-08-24T17:34:41;3.80;;;1.10;;
12302;SDS011;6214;48.012;7.862;2022-08-24T17:37:08;3.90;;;1.20;;
12302;SDS011;6214;48.012;7.862;2022-08-24T17:39:35;4.53;;;1.30;;
12302;SDS011;6214;48.012;7.862;2022-08-24T17:42:03;4.20;;;1.00;;
12302;SDS011;6214;48.012;7.862;2022-08-24T17:44:51;4.57;;;1.10;;
12302;SDS011;6214;48.012;7.862;2022-08-24T17:47:18;3.80;;;1.10;;
12302;SDS011;6214;48.012;7.862;2022-08-24T17:49:45;3.80;;;1.30;;
12302;SDS011;6214;48.012;7.862;2022-08-24T17:52:12;4.85;;;1.13;;
12302;SDS011;6214;48.012;7.862;2022-08-24T17:54:39;3.60;;;1.00;;
12302;SDS011;6214;48.012;7.862;2022-08-24T17:57:08;3.58;;;1.17;;
12302;SDS011;6214;48.012;7.862;2022-08-24T17:59:38;3.70;;;1.10;;
12302;SDS011;6214;48.012;7.862;2022-08-24T18:02:06;5.60;;;1.50;;
12302;SDS011;6214;48.012;7.862;2022-08-24T18:04:35;4.32;;;1.20;;
12302;SDS011;6214;48.012;7.862;2022-08-24T18:07:05;3.90;;;1.23;;
12302;SDS011;6214;48.012;7.862;2022-08-24T18:09:39;4.00;;;1.40;;
12302;SDS011;6214;48.012;7.862;2022-08-24T18:12:11;3.50;;;1.00;;
12302;SDS011;6214;48.012;7.862;2022-08-24T18:14:38;3.57;;;1.10;;
12302;SDS011;6214;48.012;7.862;2022-08-24T18:17:07;4.20;;;1.10;;
12302;SDS011;6214;48.012;7.862;2022-08-24T18:19:37;3.90;;;1.10;;
12302;SDS011;6214;48.012;7.862;2022-08-24T18:22:05;5.10;;;1.30;;
12302;SDS011;6214;48.012;7.862;2022-08-24T18:24:32;3.60;;;1.00;;
12302;SDS011;6214;48.012;7.862;2022-08-24T18:27:00;6.47;;;1.30;;
12302;SDS011;6214;48.012;7.862;2022-08-24T18:29:35;5.20;;;1.40;;
12302;SDS011;6214;48.012;7.862;2022-08-24T18:32:05;4.20;;;1.40;;
12302;SDS011;6214;48.012;7.862;2022-08-24T18:34:32;3.55;;;1.10;;
12302;SDS011;6214;48.012;7.862;2022-08-24T18:37:00;4.00;;;1.40;;
12302;SDS011;6214;48.012;7.862;2022-08-24T18:39:27;4.00;;;1.20;;
12302;SDS011;6214;48.012;7.862;2022-08-24T18:41:54;3.80;;;1.20;;
12302;SDS011;6214;48.012;7.862;2022-08-24T18:44:23;3.70;;;1.20;;
12302;SDS011;6214;48.012;7.862;2022-08-24T18:46:56;4.03;;;1.30;;
12302;SDS011;6214;48.012;7.862;2022-08-24T18:49:24;3.90;;;1.20;;
12302;SDS011;6214;48.012;7.862;2022-08-24T18:51:51;5.00;;;1.30;;
12302;SDS011;6214;48.012;7.862;2022-08-24T18:54:19;3.80;;;1.20;;
12302;SDS011;6214;48.012;7.862;2022-08-24T18:56:51;4.20;;;1.40;;
12302;SDS011;6214;48.012;7.862;2022-08-24T18:59:19;3.90;;;1.40;;
12302;SDS011;6214;48.012;7.862;2022-08-24T19:01:47;4.10;;;1.58;;
12302;SDS011;6214;48.012;7.862;2022-08-24T19:04:43;4.07;;;1.30;;
12302;SDS011;6214;48.012;7.862;2022-08-24T19:07:13;5.20;;;1.50;;
12302;SDS011;6214;48.012;7.862;2022-08-24T19:09:40;5.20;;;1.40;;
12302;SDS011;6214;48.012;7.862;2022-08-24T19:12:07;3.90;;;1.55;;
12302;SDS011;6214;48.012;7.862;2022-08-24T19:14:34;4.20;;;1.40;;
12302;SDS011;6214;48.012;7.862;2022-08-24T19:17:03;4.20;;;1.63;;